• Join FlightAware (Why Join?)
  • Login
  • US Flag GB Flag 
08:43 EDT


 

Airport Tracker/Info


-or-


 

Live Flight TrackerFlight Track Log ✈ CPT1940 ✈ 01-May-2013 ✈ KCPR - KCOD

Flight Track Log - Related Links

Times and Time Zones

All times are in EDT time to prevent confusion due to time zone crossing. See the CPT1940 flight status page for this flight to view local times or setup timezone preferences in your user account.

Time Position Orientation Groundspeed Altitude Reporting Facility
EDT Latitude Longitude Course Direction KTS MPH feet Rate Location/Type
13:08 43.0003 -106.5894 312° West 132 152 9,200  Level Denver Center
13:09 43.0236 -106.6264 311° West 132 152 10,000 840 Climbing Denver Center
13:10 43.0522 -106.6783 307° West 135 155 11,000 780 Climbing Denver Center
13:11 42.9351 -106.5089 310° West  Level FlightAware Approximate
13:11 43.0783 -106.7172 313° West 142 163 11,800  Level Denver Center
13:12 42.9540 -106.5393 312° West  Level FlightAware Approximate
13:12 43.1153 -106.7736 312° West 158 182 12,000  Level Denver Center
13:13 43.1519 -106.8286 312° West 172 198 12,000  Level Denver Center
13:14 43.1836 -106.8789 311° West 174 200 12,000  Level Denver Center
13:15 43.2011 -106.9108 307° West 174 200 12,000  Level Salt Lake Center
13:16 43.2322 -106.9611 310° West 174 200 12,000  Level Salt Lake Center
13:17 43.2633 -107.0078 312° West 173 199 12,000  Level Salt Lake Center
13:18 43.2986 -107.0650 310° West 176 203 12,000  Level Salt Lake Center
13:19 43.3297 -107.1114 313° West 173 199 12,000  Level Salt Lake Center
13:20 43.3467 -107.1336 316° Northwest 175 201 12,000  Level Denver Center
13:21 43.3767 -107.1806 311° West 173 199 12,000  Level Denver Center
13:21 43.3958 -107.2139 308° West 172 198 12,000  Level Salt Lake Center
13:22 43.4256 -107.2625 310° West 174 200 12,000  Level Salt Lake Center
13:23 43.4589 -107.3150 311° West 167 192 12,000  Level Salt Lake Center
13:24 43.4881 -107.3594 312° West 165 190 12,100  Climbing Salt Lake Center
13:25 43.5203 -107.4122 310° West 162 186 12,000 -60 Descending Salt Lake Center
13:26 43.5506 -107.4578 313° West 165 190 12,000  Level Salt Lake Center
13:27 43.5811 -107.5050 312° West 168 193 12,000  Level Salt Lake Center
13:28 43.6147 -107.5606 310° West 169 194 12,100  Climbing Salt Lake Center
13:29 43.6436 -107.6058 311° West 167 192 12,100 -120 Level Salt Lake Center
13:30 43.6728 -107.6514 312° West 166 191 11,900 -60 Descending Salt Lake Center
13:31 43.7053 -107.7056 310° West 165 190 12,000  Climbing Salt Lake Center
13:32 43.7344 -107.7497 312° West 164 189 12,000  Level Salt Lake Center
13:33 43.7681 -107.8033 311° West 164 189 12,100  Climbing Salt Lake Center
13:34 43.7975 -107.8497 311° West 165 190 12,100 -60 Level Salt Lake Center
13:36 43.8314 -107.9039 311° West 166 191 12,000 -60 Descending Salt Lake Center
13:37 43.8597 -107.9517 309° West 167 192 12,000  Level Salt Lake Center
13:38 43.8889 -107.9958 313° West 166 191 12,000  Level Salt Lake Center
13:39 43.9225 -108.0494 311° West 164 189 12,100  Climbing Salt Lake Center
13:40 43.9511 -108.0967 310° West 165 190 12,100  Level Salt Lake Center
13:41 43.9847 -108.1514 310° West 167 192 12,100 -360 Level Salt Lake Center
13:42 44.0133 -108.1978 311° West 166 191 11,400 -780 Descending Salt Lake Center
13:43 44.0442 -108.2447 312° West 168 193 10,600 -660 Descending Salt Lake Center
13:44 44.0797 -108.3006 312° West 171 197 10,100 -300 Descending Salt Lake Center
13:45 44.1069 -108.3481 309° West 168 193 10,100  Level Salt Lake Center
13:46 44.1328 -108.4042 303° West 161 185 10,100  Level Salt Lake Center
13:47 44.1536 -108.4528 301° West 156 180 10,100  Level Salt Lake Center
13:48 44.1761 -108.5003 303° West 154 177 10,100  Level Salt Lake Center
13:49 44.2039 -108.5544 306° West 154 177 10,100 -60 Level Salt Lake Center
13:50 44.2275 -108.6036 304° West 156 180 10,000  Descending Salt Lake Center
13:51 44.2556 -108.6608 304° West 158 182 10,100  Climbing Salt Lake Center
13:52 44.2797 -108.7106 304° West 160 184 10,100  Level Salt Lake Center
13:53 44.3025 -108.7592 303° West 159 183 10,100 -120 Level Salt Lake Center
13:54 44.3311 -108.8131 307° West 156 180 9,900 -480 Descending Salt Lake Center
13:55 44.3639 -108.8453 325° Northwest 151 174 9,200 -780 Descending Salt Lake Center
13:56 44.3992 -108.8850 321° Northwest 149 171 8,400 -840 Descending Salt Lake Center